createdAt,value
2018-07-17T00:02:26.956Z,96965.64
2018-07-17T00:04:56.848Z,96970.38
2018-07-17T00:07:26.541Z,96971.27
2018-07-17T00:09:56.421Z,96972.30
2018-07-17T00:12:26.117Z,96983.45
2018-07-17T00:14:56.071Z,96980.53
2018-07-17T00:17:25.938Z,96976.17
2018-07-17T00:19:55.799Z,96979.55
2018-07-17T00:22:25.695Z,96980.89
2018-07-17T00:24:55.533Z,96985.80
2018-07-17T00:27:25.199Z,96982.36
2018-07-17T00:29:55.124Z,96980.61
2018-07-17T00:32:24.894Z,96976.38
2018-07-17T00:34:54.835Z,96978.81
2018-07-17T00:37:24.453Z,96981.83
2018-07-17T00:39:54.435Z,96983.76
2018-07-17T00:42:24.162Z,96988.16
2018-07-17T00:44:54.040Z,96983.08
2018-07-17T00:47:23.887Z,96979.66
2018-07-17T00:49:53.737Z,96976.60
2018-07-17T00:52:23.793Z,96985.34
2018-07-17T00:54:53.580Z,96988.58
2018-07-17T00:57:23.611Z,96983.29
2018-07-17T00:59:53.443Z,96977.58
2018-07-17T01:02:28.220Z,96983.27
2018-07-17T01:05:03.115Z,96986.02
2018-07-17T01:07:37.477Z,96993.14
2018-07-17T01:10:12.365Z,96995.25
2018-07-17T01:12:41.085Z,96993.83
2018-07-17T01:15:15.947Z,96992.14
2018-07-17T01:17:46.505Z,96991.16
2018-07-17T01:20:16.314Z,96994.52
2018-07-17T01:22:46.155Z,96995.97
2018-07-17T01:25:16.007Z,96992.44
2018-07-17T01:27:45.762Z,96992.02
2018-07-17T01:30:15.554Z,96997.26
2018-07-17T01:32:45.335Z,96990.95
2018-07-17T01:35:15.199Z,96989.64
2018-07-17T01:37:45.042Z,96987.72
2018-07-17T01:40:15.166Z,96987.27
2018-07-17T01:42:44.880Z,96982.52
2018-07-17T01:45:14.680Z,96980.97
2018-07-17T01:47:44.412Z,96981.20
2018-07-17T01:50:14.243Z,96983.39
2018-07-17T01:52:43.926Z,96976.10
2018-07-17T01:55:13.762Z,96978.52
2018-07-17T01:57:43.414Z,96979.26
2018-07-17T02:00:13.214Z,96973.90
2018-07-17T02:02:42.984Z,96974.89
2018-07-17T02:05:14.008Z,96967.89
2018-07-17T02:07:43.748Z,96968.02
2018-07-17T02:10:13.539Z,96959.09
2018-07-17T02:12:43.286Z,96958.84
2018-07-17T02:15:13.088Z,96962.32
2018-07-17T02:17:42.888Z,96956.72
2018-07-17T02:20:12.867Z,96959.00
2018-07-17T02:22:42.545Z,96960.31
2018-07-17T02:25:12.685Z,96956.27
2018-07-17T02:27:42.480Z,96954.71
2018-07-17T02:30:12.412Z,96956.18
2018-07-17T02:32:42.218Z,96958.44
2018-07-17T02:35:12.082Z,96959.87
2018-07-17T02:37:41.861Z,96953.93
2018-07-17T02:40:11.656Z,96954.14
2018-07-17T02:42:41.377Z,96954.14
2018-07-17T02:45:11.449Z,96956.30
2018-07-17T02:47:41.156Z,96966.17
2018-07-17T02:50:11.216Z,96960.27
2018-07-17T02:52:40.923Z,96955.28
2018-07-17T02:55:10.794Z,96962.89
2018-07-17T02:57:40.579Z,96965.73
2018-07-17T03:00:10.393Z,96957.17
2018-07-17T03:02:40.217Z,96964.54
2018-07-17T03:05:10.180Z,96970.97
2018-07-17T03:07:40.075Z,96975.99
2018-07-17T03:10:09.881Z,96978.24
2018-07-17T03:12:39.769Z,96974.92
2018-07-17T03:15:09.674Z,96975.98
2018-07-17T03:17:39.534Z,96971.84
2018-07-17T03:20:09.413Z,96971.39
2018-07-17T03:22:39.176Z,96973.27
2018-07-17T03:25:09.234Z,96964.35
2018-07-17T03:27:38.962Z,96964.95
2018-07-17T03:30:08.777Z,96976.04
2018-07-17T03:32:38.537Z,96981.64
2018-07-17T03:35:08.590Z,96980.42
2018-07-17T03:37:38.468Z,96983.77
2018-07-17T03:40:08.696Z,96982.56
2018-07-17T03:42:38.502Z,96988.86
2018-07-17T03:45:08.414Z,96998.30
2018-07-17T03:47:38.150Z,96990.80
2018-07-17T03:50:08.109Z,96989.95
2018-07-17T03:52:37.838Z,96985.57
2018-07-17T03:55:08.395Z,96984.84
2018-07-17T03:57:38.026Z,96982.20
2018-07-17T04:00:08.111Z,96991.37
2018-07-17T04:02:37.783Z,96995.42
2018-07-17T04:05:07.724Z,97002.64
2018-07-17T04:07:37.380Z,97001.42
2018-07-17T04:10:07.428Z,96990.78
2018-07-17T04:12:37.183Z,97000.52
2018-07-17T04:15:07.153Z,96999.37
2018-07-17T04:17:37.015Z,97005.42
2018-07-17T04:20:06.820Z,97008.38
2018-07-17T04:22:36.498Z,97014.37
2018-07-17T04:25:06.700Z,97010.30
2018-07-17T04:27:36.496Z,97009.69
2018-07-17T04:30:06.501Z,97014.11
2018-07-17T04:32:36.276Z,97006.30
2018-07-17T04:35:06.259Z,97003.13
2018-07-17T04:37:36.079Z,97010.81
2018-07-17T04:40:06.514Z,97008.12
2018-07-17T04:42:36.291Z,97000.38
2018-07-17T04:45:06.165Z,97008.06
2018-07-17T04:47:35.997Z,97005.67
2018-07-17T04:50:05.847Z,97013.09
2018-07-17T04:52:35.638Z,97013.00
2018-07-17T04:55:05.775Z,97010.34
2018-07-17T04:57:35.522Z,97012.83
2018-07-17T05:00:05.619Z,97016.11
2018-07-17T05:02:35.320Z,97021.39
2018-07-17T05:05:05.741Z,97016.14
2018-07-17T05:07:35.451Z,97019.47
2018-07-17T05:10:05.577Z,97026.28
2018-07-17T05:12:35.512Z,97028.69
2018-07-17T05:15:05.683Z,97025.12
2018-07-17T05:17:35.351Z,97020.27
2018-07-17T05:20:05.840Z,97024.31
2018-07-17T05:22:35.542Z,97023.87
2018-07-17T05:25:05.457Z,97019.73
2018-07-17T05:27:35.427Z,97022.23
2018-07-17T05:30:05.952Z,97014.78
2018-07-17T05:32:35.817Z,97019.82
2018-07-17T05:35:05.898Z,97014.97
2018-07-17T05:37:35.736Z,97020.80
2018-07-17T05:40:06.182Z,97016.27
2018-07-17T05:42:35.915Z,97022.92
2018-07-17T05:45:06.059Z,97021.09
2018-07-17T05:47:39.906Z,97020.51
2018-07-17T05:50:11.553Z,97020.23
2018-07-17T05:52:41.676Z,97019.39
2018-07-17T05:55:11.737Z,97022.70
2018-07-17T05:57:41.506Z,97022.51
2018-07-17T06:00:11.599Z,97014.89
2018-07-17T06:02:41.363Z,97031.38
2018-07-17T06:05:11.598Z,97022.53
2018-07-17T06:07:41.310Z,97019.98
2018-07-17T06:10:11.176Z,97024.06
2018-07-17T06:12:41.239Z,97025.38
2018-07-17T06:15:11.191Z,97021.02
2018-07-17T06:17:41.278Z,97016.76
2018-07-17T06:20:11.615Z,97021.39
2018-07-17T06:22:41.516Z,97020.64
2018-07-17T06:25:12.072Z,97010.52
2018-07-17T06:27:42.159Z,97018.45
2018-07-17T06:30:11.915Z,97014.95
2018-07-17T06:32:41.697Z,97019.50
2018-07-17T06:35:11.767Z,97019.41
2018-07-17T06:37:41.605Z,97024.62
2018-07-17T06:40:11.616Z,97025.48
2018-07-17T06:42:41.695Z,97022.89
2018-07-17T06:45:11.580Z,97020.31
2018-07-17T06:47:41.312Z,97018.53
2018-07-17T06:50:11.421Z,97017.97
2018-07-17T06:52:41.398Z,97019.91
2018-07-17T06:55:11.489Z,97011.34
2018-07-17T06:57:41.540Z,97015.41
2018-07-17T07:00:11.421Z,97013.74
2018-07-17T07:02:41.163Z,97002.05
2018-07-17T07:05:11.276Z,97002.23
2018-07-17T07:07:41.933Z,97002.08
2018-07-17T07:10:11.990Z,97001.95
2018-07-17T07:12:41.880Z,97008.37
2018-07-17T07:15:11.846Z,97007.89
2018-07-17T07:17:41.628Z,97005.58
2018-07-17T07:20:11.663Z,97000.82
2018-07-17T07:22:42.210Z,96999.36
2018-07-17T07:25:12.140Z,96992.45
2018-07-17T07:27:41.824Z,96993.42
2018-07-17T07:30:12.779Z,96991.25
2018-07-17T07:32:42.629Z,96995.20
2018-07-17T07:35:13.751Z,96983.12
2018-07-17T07:37:43.758Z,96988.72
2018-07-17T07:40:14.554Z,96985.91
2018-07-17T07:42:44.585Z,96989.39
2018-07-17T07:45:16.324Z,96984.71
2018-07-17T07:47:46.314Z,96989.81
2018-07-17T07:50:17.357Z,96987.56
2018-07-17T07:52:47.795Z,96979.91
2018-07-17T07:55:19.425Z,96977.34
2018-07-17T07:57:49.859Z,96981.48
2018-07-17T08:00:21.985Z,96981.24
2018-07-17T08:02:51.801Z,96986.61
2018-07-17T10:40:59.181Z,96993.03
2018-07-17T10:43:29.166Z,96996.97
2018-07-17T10:45:59.223Z,96992.22
2018-07-17T10:48:29.395Z,96994.04
2018-07-17T10:50:59.324Z,96992.70
2018-07-17T10:53:29.477Z,96998.36
2018-07-17T10:55:59.341Z,96997.10
2018-07-17T10:58:29.164Z,96995.45
2018-07-17T11:00:59.031Z,96991.14
2018-07-17T11:03:28.953Z,96999.38
2018-07-17T11:05:58.814Z,96999.64
2018-07-17T11:08:28.600Z,97004.00
2018-07-17T11:10:58.477Z,96999.39
2018-07-17T11:13:28.396Z,97001.27
2018-07-17T11:15:58.360Z,97001.45
2018-07-17T11:18:28.260Z,97007.14
2018-07-17T11:20:58.100Z,97005.13
2018-07-17T11:23:27.975Z,97014.46
2018-07-17T11:25:59.202Z,97015.32
2018-07-17T11:28:29.317Z,97016.82
2018-07-17T11:31:00.249Z,97018.61
2018-07-17T11:33:30.010Z,97015.98
2018-07-17T11:36:00.538Z,97018.92
2018-07-17T11:38:30.351Z,97013.84
2018-07-17T11:41:01.068Z,97015.13
2018-07-17T11:43:31.285Z,97019.50
2018-07-17T11:46:02.660Z,97017.69
2018-07-17T11:48:32.426Z,97031.26
2018-07-17T11:51:03.935Z,97036.84
2018-07-17T11:53:33.598Z,97043.06
2018-07-17T11:56:04.303Z,97035.24
2018-07-17T11:58:34.074Z,97035.87
2018-07-17T12:01:04.300Z,97041.68
2018-07-17T12:03:34.123Z,97038.99
2018-07-17T12:06:03.924Z,97036.80
2018-07-17T12:08:33.703Z,97032.39
2018-07-17T12:11:03.466Z,97029.18
2018-07-17T12:13:33.548Z,97037.81
2018-07-17T12:16:03.348Z,97039.47
2018-07-17T12:18:33.124Z,97041.14
2018-07-17T12:21:02.904Z,97045.95
2018-07-17T12:23:32.921Z,97045.26
2018-07-17T12:26:02.644Z,97040.48
2018-07-17T12:28:32.407Z,97043.22
2018-07-17T12:31:02.184Z,97041.89
2018-07-17T12:33:31.970Z,97033.35
2018-07-17T12:36:01.526Z,97032.42
2018-07-17T12:38:31.480Z,97029.69
2018-07-17T12:41:01.227Z,97025.45
2018-07-17T12:43:31.056Z,97022.64
2018-07-17T12:46:00.836Z,97029.50
2018-07-17T12:48:30.834Z,97018.77
2018-07-17T12:51:00.626Z,97019.07
2018-07-17T12:53:30.641Z,97022.84
2018-07-17T12:56:00.609Z,97019.43
2018-07-17T12:58:30.530Z,97012.13
2018-07-17T13:01:00.251Z,97014.62
2018-07-17T13:03:30.416Z,97013.58
2018-07-17T13:06:00.104Z,97013.20
2018-07-17T13:08:29.950Z,97006.73
2018-07-17T13:10:59.965Z,97006.06
2018-07-17T13:13:29.854Z,97004.73
2018-07-17T13:15:59.616Z,97006.84
2018-07-17T13:18:29.539Z,97004.38
2018-07-17T13:20:59.317Z,97005.19
2018-07-17T13:23:29.259Z,97007.70
2018-07-17T13:25:59.036Z,97006.89
2018-07-17T13:28:28.796Z,97001.85
2018-07-17T13:30:58.644Z,97004.31
2018-07-17T13:33:28.693Z,97004.72
2018-07-17T13:35:58.501Z,96997.27
2018-07-17T13:38:28.317Z,96998.78
2018-07-17T13:40:58.328Z,97001.20
2018-07-17T13:43:28.181Z,97000.98
2018-07-17T13:45:57.915Z,96998.52
2018-07-17T13:48:27.680Z,96998.68
2018-07-17T13:50:58.299Z,96990.48
2018-07-17T13:53:28.116Z,96980.38
2018-07-17T13:55:57.842Z,96975.34
2018-07-17T13:58:27.687Z,96980.96
2018-07-17T14:00:57.379Z,96981.25
2018-07-17T14:03:27.255Z,96976.92
2018-07-17T14:05:57.124Z,96979.41
2018-07-17T14:08:26.972Z,96980.15
2018-07-17T14:10:56.676Z,96979.61
2018-07-17T14:13:26.827Z,96967.14
2018-07-17T14:15:56.401Z,96979.41
2018-07-17T14:18:26.160Z,96972.67
2018-07-17T14:20:55.940Z,96968.88
2018-07-17T14:23:25.649Z,96966.04
2018-07-17T14:25:55.732Z,96960.95
2018-07-17T14:28:26.005Z,96958.36
2018-07-17T14:30:55.692Z,96952.16
2018-07-17T14:33:25.626Z,96951.47
2018-07-17T14:35:55.316Z,96945.28
2018-07-17T14:38:25.052Z,96937.68
2018-07-17T14:40:54.601Z,96939.42
2018-07-17T14:43:24.691Z,96936.50
2018-07-17T14:45:54.353Z,96934.31
2018-07-17T14:48:24.192Z,96928.13
2018-07-17T14:50:54.087Z,96926.73
2018-07-17T14:53:23.788Z,96930.84
2018-07-17T14:55:53.527Z,96925.43
2018-07-17T14:58:23.372Z,96922.81
2018-07-17T15:00:53.252Z,96919.66
2018-07-17T15:03:23.043Z,96922.75
2018-07-17T15:05:52.712Z,96922.33
2018-07-17T15:08:22.531Z,96926.42
2018-07-17T15:10:52.249Z,96928.34
2018-07-17T15:13:22.084Z,96938.35
2018-07-17T15:15:51.797Z,96924.26
2018-07-17T15:18:21.624Z,96923.37
2018-07-17T15:20:51.503Z,96925.06
2018-07-17T15:23:21.690Z,96928.70
2018-07-17T15:25:51.363Z,96920.13
2018-07-17T15:28:21.209Z,96925.29
2018-07-17T15:30:51.367Z,96922.08
2018-07-17T15:33:21.230Z,96920.17
2018-07-17T15:35:50.986Z,96923.45
2018-07-17T15:38:20.916Z,96928.83
2018-07-17T15:40:50.570Z,96923.02
2018-07-17T15:43:20.458Z,96924.27
2018-07-17T15:45:50.246Z,96926.17
2018-07-17T15:48:20.157Z,96931.19
2018-07-17T15:50:49.989Z,96931.84
2018-07-17T15:53:20.250Z,96936.84
2018-07-17T15:55:50.054Z,96950.11
2018-07-17T15:58:19.930Z,96949.14
2018-07-17T16:00:49.709Z,96942.41
2018-07-17T16:03:19.810Z,96951.48
2018-07-17T16:05:50.443Z,96950.84
2018-07-17T16:08:21.514Z,96948.38
2018-07-17T16:10:51.372Z,96952.90
2018-07-17T16:13:21.399Z,96945.37
2018-07-17T16:15:51.126Z,96945.02
2018-07-17T16:18:20.931Z,96944.61
2018-07-17T16:20:50.648Z,96945.00
2018-07-17T16:23:20.630Z,96952.07
2018-07-17T16:25:50.488Z,96956.44
2018-07-17T16:28:20.307Z,96957.75
2018-07-17T16:30:50.047Z,96966.52
2018-07-17T16:33:19.889Z,96960.70
2018-07-17T16:35:49.563Z,96963.59
2018-07-17T16:38:19.429Z,96968.50
2018-07-17T16:40:49.361Z,96965.16
2018-07-17T16:43:19.230Z,96968.97
2018-07-17T16:45:48.988Z,96971.24
2018-07-17T16:48:18.808Z,96972.64
2018-07-17T16:50:48.555Z,96968.26
2018-07-17T16:53:19.009Z,96974.30
2018-07-17T16:55:48.851Z,96975.39
2018-07-17T16:58:18.670Z,96973.53
2018-07-17T17:00:48.549Z,96973.88
2018-07-17T17:03:18.472Z,96980.73
2018-07-17T17:05:57.014Z,96984.75
2018-07-17T17:08:27.834Z,96983.66
2018-07-17T17:10:57.674Z,96988.59
2018-07-17T17:13:27.419Z,96982.27
2018-07-17T17:15:57.295Z,96981.52
2018-07-17T17:18:27.275Z,96984.27
2018-07-17T17:20:57.103Z,96983.05
2018-07-17T17:23:26.857Z,96990.97
2018-07-17T17:25:56.581Z,96989.77
2018-07-17T17:28:26.442Z,96997.29
2018-07-17T17:30:56.116Z,96996.56
2018-07-17T17:33:25.859Z,96988.41
2018-07-17T17:35:55.576Z,96988.19
2018-07-17T17:38:25.396Z,96990.21
2018-07-17T17:40:55.193Z,96992.48
2018-07-17T17:43:24.977Z,96988.86
2018-07-17T17:45:54.659Z,96990.08
2018-07-17T17:48:24.638Z,96990.87
2018-07-17T17:50:54.837Z,96997.13
2018-07-17T17:53:24.637Z,96993.08
2018-07-17T17:55:54.498Z,96998.45
2018-07-17T17:58:24.320Z,97008.06
2018-07-17T18:00:54.344Z,97005.27
2018-07-17T18:03:24.257Z,97008.55
2018-07-17T18:05:54.077Z,97012.55
2018-07-17T18:08:23.797Z,97011.50
2018-07-17T18:10:53.679Z,97013.33
2018-07-17T18:13:23.418Z,97015.21
2018-07-17T18:15:53.165Z,97018.34
2018-07-17T18:18:23.817Z,97021.02
2018-07-17T18:20:53.399Z,97023.05
2018-07-17T18:23:23.243Z,97025.28
2018-07-17T18:25:52.721Z,97025.13
2018-07-17T18:28:22.268Z,97023.55
2018-07-17T18:30:51.938Z,97030.36
2018-07-17T18:33:22.076Z,97035.17
2018-07-17T18:35:51.923Z,97030.42
2018-07-17T18:38:21.768Z,97037.13
2018-07-17T18:40:51.375Z,97039.62
2018-07-17T18:43:22.015Z,97035.23
2018-07-17T18:45:51.687Z,97046.70
2018-07-17T18:48:21.529Z,97046.53
2018-07-17T18:50:51.208Z,97061.04
2018-07-17T18:53:21.127Z,97060.41
2018-07-17T18:55:50.835Z,97057.66
2018-07-17T18:58:20.779Z,97062.17
2018-07-17T19:00:50.881Z,97064.23
2018-07-17T19:03:20.796Z,97068.91
2018-07-17T19:05:50.610Z,97069.23
2018-07-17T19:08:20.689Z,97075.38
2018-07-17T19:10:50.332Z,97077.03
2018-07-17T19:13:20.911Z,97082.14
2018-07-17T19:15:50.671Z,97072.89
2018-07-17T19:18:21.367Z,97084.78
2018-07-17T19:20:51.295Z,97079.66
2018-07-17T19:23:23.177Z,97086.42
2018-07-17T19:25:53.511Z,97084.06
2018-07-17T19:28:25.096Z,97092.94
2018-07-17T19:30:54.859Z,97094.88
2018-07-17T19:33:25.528Z,97099.03
2018-07-17T19:35:55.408Z,97100.98
2018-07-17T19:38:26.329Z,97113.32
2018-07-17T19:40:56.287Z,97111.27
2018-07-17T19:43:26.854Z,97112.81
2018-07-17T19:45:56.697Z,97117.08
2018-07-17T19:48:28.967Z,97113.88
2018-07-17T19:50:58.866Z,97121.16
2018-07-17T19:53:29.543Z,97119.78
2018-07-17T19:55:59.395Z,97124.69
2018-07-17T19:58:29.246Z,97122.88
2018-07-17T20:00:59.840Z,97120.22
2018-07-17T20:03:29.833Z,97117.45
2018-07-17T20:05:59.822Z,97115.48
2018-07-17T20:08:29.922Z,97117.08
2018-07-17T20:11:00.288Z,97115.25
2018-07-17T20:13:30.024Z,97109.95
2018-07-17T20:15:59.823Z,97105.73
2018-07-17T20:18:29.492Z,97103.23
2018-07-17T20:20:59.320Z,97106.70
2018-07-17T20:23:29.010Z,97108.58
2018-07-17T20:25:58.964Z,97108.48
2018-07-17T20:28:28.890Z,97105.25
2018-07-17T20:30:58.739Z,97105.15
2018-07-17T20:33:28.620Z,97107.03
2018-07-17T20:35:58.484Z,97105.45
2018-07-17T20:38:28.878Z,97106.08
2018-07-17T20:40:58.638Z,97109.14
2018-07-17T20:43:28.619Z,97107.64
2018-07-17T20:45:58.500Z,97107.25
2018-07-17T20:48:28.182Z,97111.25
2018-07-17T20:50:58.065Z,97109.46
2018-07-17T20:53:27.771Z,97112.27
2018-07-17T20:55:57.845Z,97109.84
2018-07-17T20:58:27.631Z,97114.70
2018-07-17T21:00:57.495Z,97113.03
2018-07-17T21:03:27.157Z,97114.92
2018-07-17T21:05:56.927Z,97107.92
2018-07-17T21:08:28.344Z,97109.25
2018-07-17T21:10:58.089Z,97106.27
2018-07-17T21:13:27.805Z,97100.55
2018-07-17T21:15:57.645Z,97099.28
2018-07-17T21:18:27.452Z,97095.34
2018-07-17T21:20:57.538Z,97091.84
2018-07-17T21:23:27.452Z,97090.03
2018-07-17T21:25:57.849Z,97089.26
2018-07-17T21:28:28.031Z,97102.50
2018-07-17T21:30:57.774Z,97109.63
2018-07-17T21:33:27.450Z,97116.34
2018-07-17T21:35:57.271Z,97114.20
2018-07-17T21:38:27.109Z,97107.80
2018-07-17T21:40:56.892Z,97107.60
2018-07-17T21:43:26.554Z,97108.65
2018-07-17T21:45:56.230Z,97108.91
2018-07-17T21:48:25.894Z,97116.47
2018-07-17T21:50:55.674Z,97120.13
2018-07-17T21:53:25.398Z,97123.11
2018-07-17T21:55:55.610Z,97131.12
2018-07-17T21:58:25.271Z,97122.27
2018-07-17T22:00:55.331Z,97117.82
2018-07-17T22:03:25.305Z,97126.11
2018-07-17T22:05:55.302Z,97122.89
2018-07-17T22:08:25.066Z,97126.97
2018-07-17T22:10:55.018Z,97123.25
2018-07-17T22:13:24.871Z,97128.97
2018-07-17T22:15:54.652Z,97128.02
2018-07-17T22:18:24.416Z,97126.34
2018-07-17T22:20:54.175Z,97129.72
2018-07-17T22:23:23.909Z,97124.44
2018-07-17T22:25:54.003Z,97129.06
2018-07-17T22:28:23.755Z,97132.08
2018-07-17T22:30:53.516Z,97135.45
2018-07-17T22:33:23.388Z,97135.27
2018-07-17T22:35:53.441Z,97132.10
2018-07-17T22:38:23.115Z,97135.35
2018-07-17T22:40:52.951Z,97133.52
2018-07-17T22:43:22.767Z,97141.79
2018-07-17T22:45:52.685Z,97138.86
2018-07-17T22:48:22.387Z,97146.94
2018-07-17T22:50:52.574Z,97141.61
2018-07-17T22:53:22.294Z,97139.61
2018-07-17T22:55:52.099Z,97141.97
2018-07-17T22:58:21.823Z,97141.86
2018-07-17T23:00:51.567Z,97139.59
2018-07-17T23:03:21.370Z,97143.36
2018-07-17T23:05:51.116Z,97143.23
2018-07-17T23:08:20.666Z,97138.86
2018-07-17T23:23:40.769Z,97141.61
2018-07-17T23:26:10.720Z,97142.66
2018-07-17T23:28:41.297Z,97139.16
2018-07-17T23:31:11.202Z,97148.73
2018-07-17T23:33:41.018Z,97156.75
2018-07-17T23:36:10.973Z,97147.22
2018-07-17T23:38:40.616Z,97150.75
2018-07-17T23:41:10.563Z,97157.58
2018-07-17T23:43:40.402Z,97153.80
2018-07-17T23:46:10.369Z,97151.88
2018-07-17T23:48:40.264Z,97145.68
2018-07-17T23:51:11.409Z,97143.46
2018-07-17T23:53:41.165Z,97139.83
2018-07-17T23:56:12.578Z,97145.76
2018-07-17T23:58:42.687Z,97143.26
